sensor_id;sensor_type;location;lat;lon;timestamp;P1;durP1;ratioP1;P2;durP2;ratioP2
15944;SDS011;30172;48.832;8.732;2024-03-02T00:01:57;13.10;;;8.50;;
15944;SDS011;30172;48.832;8.732;2024-03-02T00:04:23;10.00;;;7.30;;
15944;SDS011;30172;48.832;8.732;2024-03-02T00:06:50;10.27;;;7.50;;
15944;SDS011;30172;48.832;8.732;2024-03-02T00:09:17;9.17;;;7.70;;
15944;SDS011;30172;48.832;8.732;2024-03-02T00:11:43;11.30;;;7.90;;
15944;SDS011;30172;48.832;8.732;2024-03-02T00:14:09;9.93;;;8.30;;
15944;SDS011;30172;48.832;8.732;2024-03-02T00:16:34;10.40;;;8.03;;
15944;SDS011;30172;48.832;8.732;2024-03-02T00:19:03;10.63;;;8.10;;
15944;SDS011;30172;48.832;8.732;2024-03-02T00:21:30;13.10;;;9.17;;
15944;SDS011;30172;48.832;8.732;2024-03-02T00:23:56;11.20;;;8.00;;
15944;SDS011;30172;48.832;8.732;2024-03-02T00:26:21;10.37;;;8.03;;
15944;SDS011;30172;48.832;8.732;2024-03-02T00:28:47;8.73;;;7.20;;
15944;SDS011;30172;48.832;8.732;2024-03-02T00:31:15;12.33;;;7.70;;
15944;SDS011;30172;48.832;8.732;2024-03-02T00:33:44;12.17;;;7.73;;
15944;SDS011;30172;48.832;8.732;2024-03-02T00:36:29;9.63;;;6.83;;
15944;SDS011;30172;48.832;8.732;2024-03-02T00:38:54;11.33;;;7.33;;
15944;SDS011;30172;48.832;8.732;2024-03-02T00:44:01;10.50;;;7.90;;
15944;SDS011;30172;48.832;8.732;2024-03-02T00:46:34;10.70;;;7.73;;
15944;SDS011;30172;48.832;8.732;2024-03-02T00:51:38;9.40;;;7.33;;
15944;SDS011;30172;48.832;8.732;2024-03-02T00:54:05;11.87;;;8.13;;
15944;SDS011;30172;48.832;8.732;2024-03-02T00:56:32;10.40;;;8.00;;
15944;SDS011;30172;48.832;8.732;2024-03-02T00:58:58;9.97;;;7.97;;
15944;SDS011;30172;48.832;8.732;2024-03-02T01:01:23;12.07;;;7.13;;
15944;SDS011;30172;48.832;8.732;2024-03-02T01:03:48;10.50;;;7.97;;
15944;SDS011;30172;48.832;8.732;2024-03-02T01:06:15;12.43;;;8.40;;
15944;SDS011;30172;48.832;8.732;2024-03-02T01:08:41;10.23;;;7.63;;
15944;SDS011;30172;48.832;8.732;2024-03-02T01:11:07;8.57;;;7.30;;
15944;SDS011;30172;48.832;8.732;2024-03-02T01:13:32;10.67;;;7.33;;
15944;SDS011;30172;48.832;8.732;2024-03-02T01:15:58;11.57;;;7.67;;
15944;SDS011;30172;48.832;8.732;2024-03-02T01:18:23;9.97;;;7.40;;
15944;SDS011;30172;48.832;8.732;2024-03-02T01:20:49;9.70;;;7.63;;
15944;SDS011;30172;48.832;8.732;2024-03-02T01:23:20;9.43;;;7.83;;
15944;SDS011;30172;48.832;8.732;2024-03-02T01:25:48;10.40;;;9.10;;
15944;SDS011;30172;48.832;8.732;2024-03-02T01:28:14;10.43;;;8.20;;
15944;SDS011;30172;48.832;8.732;2024-03-02T01:30:40;11.47;;;8.60;;
15944;SDS011;30172;48.832;8.732;2024-03-02T01:33:05;12.30;;;8.17;;
15944;SDS011;30172;48.832;8.732;2024-03-02T01:35:31;10.73;;;8.93;;
15944;SDS011;30172;48.832;8.732;2024-03-02T01:37:57;12.13;;;8.47;;
15944;SDS011;30172;48.832;8.732;2024-03-02T01:40:22;12.20;;;8.80;;
15944;SDS011;30172;48.832;8.732;2024-03-02T01:42:51;11.70;;;8.23;;
15944;SDS011;30172;48.832;8.732;2024-03-02T01:45:17;11.73;;;8.20;;
15944;SDS011;30172;48.832;8.732;2024-03-02T01:47:42;12.33;;;8.63;;
15944;SDS011;30172;48.832;8.732;2024-03-02T01:50:08;10.50;;;8.00;;
15944;SDS011;30172;48.832;8.732;2024-03-02T01:52:34;11.30;;;8.33;;
15944;SDS011;30172;48.832;8.732;2024-03-02T01:54:59;11.43;;;7.93;;
15944;SDS011;30172;48.832;8.732;2024-03-02T01:57:24;10.10;;;7.80;;
15944;SDS011;30172;48.832;8.732;2024-03-02T01:59:50;12.67;;;7.77;;
15944;SDS011;30172;48.832;8.732;2024-03-02T02:02:18;10.73;;;8.20;;
15944;SDS011;30172;48.832;8.732;2024-03-02T02:04:43;10.87;;;8.17;;
15944;SDS011;30172;48.832;8.732;2024-03-02T02:07:09;9.90;;;7.53;;
15944;SDS011;30172;48.832;8.732;2024-03-02T02:09:35;10.33;;;8.13;;
15944;SDS011;30172;48.832;8.732;2024-03-02T02:12:00;11.03;;;8.03;;
15944;SDS011;30172;48.832;8.732;2024-03-02T02:14:26;11.70;;;9.13;;
15944;SDS011;30172;48.832;8.732;2024-03-02T02:16:51;11.70;;;8.53;;
15944;SDS011;30172;48.832;8.732;2024-03-02T02:19:17;10.60;;;8.87;;
15944;SDS011;30172;48.832;8.732;2024-03-02T02:21:43;12.47;;;8.40;;
15944;SDS011;30172;48.832;8.732;2024-03-02T02:24:08;10.30;;;7.83;;
15944;SDS011;30172;48.832;8.732;2024-03-02T02:26:33;12.10;;;8.40;;
15944;SDS011;30172;48.832;8.732;2024-03-02T02:28:59;13.33;;;8.93;;
15944;SDS011;30172;48.832;8.732;2024-03-02T02:31:24;11.17;;;7.90;;
15944;SDS011;30172;48.832;8.732;2024-03-02T02:33:49;11.37;;;8.50;;
15944;SDS011;30172;48.832;8.732;2024-03-02T02:36:15;12.77;;;8.27;;
15944;SDS011;30172;48.832;8.732;2024-03-02T02:38:42;10.83;;;8.47;;
15944;SDS011;30172;48.832;8.732;2024-03-02T02:41:09;11.03;;;8.87;;
15944;SDS011;30172;48.832;8.732;2024-03-02T02:43:35;11.93;;;8.37;;
15944;SDS011;30172;48.832;8.732;2024-03-02T02:46:00;11.30;;;8.40;;
15944;SDS011;30172;48.832;8.732;2024-03-02T02:48:25;10.93;;;8.23;;
15944;SDS011;30172;48.832;8.732;2024-03-02T02:50:51;12.90;;;8.57;;
15944;SDS011;30172;48.832;8.732;2024-03-02T02:53:16;11.63;;;8.30;;
15944;SDS011;30172;48.832;8.732;2024-03-02T02:55:41;10.13;;;7.37;;
15944;SDS011;30172;48.832;8.732;2024-03-02T02:58:08;11.43;;;8.73;;
15944;SDS011;30172;48.832;8.732;2024-03-02T03:00:36;11.20;;;8.57;;
15944;SDS011;30172;48.832;8.732;2024-03-02T03:03:02;11.20;;;8.47;;
15944;SDS011;30172;48.832;8.732;2024-03-02T03:05:27;12.43;;;8.70;;
15944;SDS011;30172;48.832;8.732;2024-03-02T03:07:53;10.53;;;8.00;;
15944;SDS011;30172;48.832;8.732;2024-03-02T03:10:18;10.87;;;8.13;;
15944;SDS011;30172;48.832;8.732;2024-03-02T03:12:46;10.47;;;7.80;;
15944;SDS011;30172;48.832;8.732;2024-03-02T03:15:12;9.93;;;7.57;;
15944;SDS011;30172;48.832;8.732;2024-03-02T03:17:38;10.70;;;8.10;;
15944;SDS011;30172;48.832;8.732;2024-03-02T03:20:03;11.93;;;7.60;;
15944;SDS011;30172;48.832;8.732;2024-03-02T03:22:30;11.27;;;7.23;;
15944;SDS011;30172;48.832;8.732;2024-03-02T03:25:00;10.47;;;7.53;;
15944;SDS011;30172;48.832;8.732;2024-03-02T03:27:25;9.67;;;7.43;;
15944;SDS011;30172;48.832;8.732;2024-03-02T03:29:51;10.47;;;8.13;;
15944;SDS011;30172;48.832;8.732;2024-03-02T03:32:17;9.13;;;6.90;;
15944;SDS011;30172;48.832;8.732;2024-03-02T03:34:42;12.90;;;7.77;;
15944;SDS011;30172;48.832;8.732;2024-03-02T03:37:07;9.13;;;7.40;;
15944;SDS011;30172;48.832;8.732;2024-03-02T03:39:33;8.97;;;7.03;;
15944;SDS011;30172;48.832;8.732;2024-03-02T03:41:59;8.77;;;7.40;;
15944;SDS011;30172;48.832;8.732;2024-03-02T03:44:24;9.83;;;6.93;;
15944;SDS011;30172;48.832;8.732;2024-03-02T03:46:49;10.60;;;8.10;;
15944;SDS011;30172;48.832;8.732;2024-03-02T03:49:15;10.90;;;7.97;;
15944;SDS011;30172;48.832;8.732;2024-03-02T03:51:40;9.80;;;7.70;;
15944;SDS011;30172;48.832;8.732;2024-03-02T03:54:06;10.20;;;7.33;;
15944;SDS011;30172;48.832;8.732;2024-03-02T03:56:31;10.87;;;7.87;;
15944;SDS011;30172;48.832;8.732;2024-03-02T03:58:56;10.23;;;8.07;;
15944;SDS011;30172;48.832;8.732;2024-03-02T04:01:22;11.00;;;8.17;;
15944;SDS011;30172;48.832;8.732;2024-03-02T04:03:48;11.30;;;8.67;;
15944;SDS011;30172;48.832;8.732;2024-03-02T04:06:13;10.93;;;8.47;;
15944;SDS011;30172;48.832;8.732;2024-03-02T04:08:39;10.73;;;8.20;;
15944;SDS011;30172;48.832;8.732;2024-03-02T04:11:06;11.80;;;8.07;;
15944;SDS011;30172;48.832;8.732;2024-03-02T04:13:32;11.17;;;7.90;;
15944;SDS011;30172;48.832;8.732;2024-03-02T04:15:58;10.97;;;7.93;;
15944;SDS011;30172;48.832;8.732;2024-03-02T04:18:23;10.80;;;8.30;;
15944;SDS011;30172;48.832;8.732;2024-03-02T04:20:48;13.37;;;9.37;;
15944;SDS011;30172;48.832;8.732;2024-03-02T04:23:14;10.40;;;8.67;;
15944;SDS011;30172;48.832;8.732;2024-03-02T04:25:39;10.70;;;7.93;;
15944;SDS011;30172;48.832;8.732;2024-03-02T04:28:04;10.80;;;8.10;;
15944;SDS011;30172;48.832;8.732;2024-03-02T04:30:30;10.80;;;7.90;;
15944;SDS011;30172;48.832;8.732;2024-03-02T04:32:55;12.93;;;8.90;;
15944;SDS011;30172;48.832;8.732;2024-03-02T04:35:21;12.00;;;8.97;;
15944;SDS011;30172;48.832;8.732;2024-03-02T04:37:46;14.73;;;8.93;;
15944;SDS011;30172;48.832;8.732;2024-03-02T04:40:11;12.73;;;8.50;;
15944;SDS011;30172;48.832;8.732;2024-03-02T04:42:37;12.80;;;9.77;;
15944;SDS011;30172;48.832;8.732;2024-03-02T04:45:02;11.93;;;8.63;;
15944;SDS011;30172;48.832;8.732;2024-03-02T04:47:28;13.37;;;9.80;;
15944;SDS011;30172;48.832;8.732;2024-03-02T04:49:53;12.87;;;9.13;;
15944;SDS011;30172;48.832;8.732;2024-03-02T04:52:18;12.10;;;9.20;;
15944;SDS011;30172;48.832;8.732;2024-03-02T04:54:44;12.27;;;9.43;;
15944;SDS011;30172;48.832;8.732;2024-03-02T04:57:28;13.07;;;9.10;;
15944;SDS011;30172;48.832;8.732;2024-03-02T04:59:53;13.73;;;9.17;;
15944;SDS011;30172;48.832;8.732;2024-03-02T05:02:18;11.93;;;8.77;;
15944;SDS011;30172;48.832;8.732;2024-03-02T05:04:44;12.50;;;8.83;;
15944;SDS011;30172;48.832;8.732;2024-03-02T05:07:09;16.27;;;9.17;;
15944;SDS011;30172;48.832;8.732;2024-03-02T05:09:35;12.83;;;8.77;;
15944;SDS011;30172;48.832;8.732;2024-03-02T05:12:00;15.37;;;9.43;;
15944;SDS011;30172;48.832;8.732;2024-03-02T05:14:45;12.83;;;8.77;;
15944;SDS011;30172;48.832;8.732;2024-03-02T05:17:10;13.53;;;8.87;;
15944;SDS011;30172;48.832;8.732;2024-03-02T05:19:36;13.77;;;9.40;;
15944;SDS011;30172;48.832;8.732;2024-03-02T05:22:01;11.27;;;8.60;;
15944;SDS011;30172;48.832;8.732;2024-03-02T05:24:28;11.87;;;9.60;;
15944;SDS011;30172;48.832;8.732;2024-03-02T05:26:53;13.17;;;8.80;;
15944;SDS011;30172;48.832;8.732;2024-03-02T05:29:19;14.33;;;9.37;;
15944;SDS011;30172;48.832;8.732;2024-03-02T05:31:44;12.47;;;8.73;;
15944;SDS011;30172;48.832;8.732;2024-03-02T05:34:09;12.43;;;8.47;;
15944;SDS011;30172;48.832;8.732;2024-03-02T05:36:35;12.37;;;8.53;;
15944;SDS011;30172;48.832;8.732;2024-03-02T05:39:00;11.47;;;7.67;;
15944;SDS011;30172;48.832;8.732;2024-03-02T05:41:26;10.97;;;7.00;;
15944;SDS011;30172;48.832;8.732;2024-03-02T05:43:51;10.70;;;7.23;;
15944;SDS011;30172;48.832;8.732;2024-03-02T05:46:17;10.10;;;7.13;;
15944;SDS011;30172;48.832;8.732;2024-03-02T05:48:42;9.33;;;7.40;;
15944;SDS011;30172;48.832;8.732;2024-03-02T05:51:08;10.40;;;6.97;;
15944;SDS011;30172;48.832;8.732;2024-03-02T05:53:33;10.17;;;7.10;;
15944;SDS011;30172;48.832;8.732;2024-03-02T05:55:58;9.10;;;6.97;;
15944;SDS011;30172;48.832;8.732;2024-03-02T05:58:24;9.23;;;6.60;;
15944;SDS011;30172;48.832;8.732;2024-03-02T06:01:12;9.90;;;7.80;;
15944;SDS011;30172;48.832;8.732;2024-03-02T06:03:38;10.17;;;7.87;;
15944;SDS011;30172;48.832;8.732;2024-03-02T06:06:03;12.20;;;7.20;;
15944;SDS011;30172;48.832;8.732;2024-03-02T06:08:29;11.17;;;7.17;;
15944;SDS011;30172;48.832;8.732;2024-03-02T06:10:54;8.77;;;7.03;;
15944;SDS011;30172;48.832;8.732;2024-03-02T06:13:21;10.17;;;7.17;;
15944;SDS011;30172;48.832;8.732;2024-03-02T06:15:46;11.80;;;7.17;;
15944;SDS011;30172;48.832;8.732;2024-03-02T06:18:11;11.23;;;7.10;;
15944;SDS011;30172;48.832;8.732;2024-03-02T06:20:37;10.63;;;7.23;;
15944;SDS011;30172;48.832;8.732;2024-03-02T06:23:03;11.27;;;7.43;;
15944;SDS011;30172;48.832;8.732;2024-03-02T06:25:29;11.10;;;7.50;;
15944;SDS011;30172;48.832;8.732;2024-03-02T06:27:54;11.30;;;7.53;;
15944;SDS011;30172;48.832;8.732;2024-03-02T06:30:19;13.37;;;7.07;;
15944;SDS011;30172;48.832;8.732;2024-03-02T06:32:45;10.80;;;6.77;;
15944;SDS011;30172;48.832;8.732;2024-03-02T06:35:10;9.20;;;6.20;;
15944;SDS011;30172;48.832;8.732;2024-03-02T06:37:36;10.20;;;6.77;;
15944;SDS011;30172;48.832;8.732;2024-03-02T06:40:03;7.33;;;5.80;;
15944;SDS011;30172;48.832;8.732;2024-03-02T06:42:28;8.80;;;6.33;;
15944;SDS011;30172;48.832;8.732;2024-03-02T06:44:58;7.90;;;5.97;;
15944;SDS011;30172;48.832;8.732;2024-03-02T06:47:23;9.53;;;6.47;;
15944;SDS011;30172;48.832;8.732;2024-03-02T06:49:49;7.13;;;5.60;;
15944;SDS011;30172;48.832;8.732;2024-03-02T06:52:14;7.77;;;5.77;;
15944;SDS011;30172;48.832;8.732;2024-03-02T06:54:39;7.03;;;5.83;;
15944;SDS011;30172;48.832;8.732;2024-03-02T06:57:05;7.97;;;5.83;;
15944;SDS011;30172;48.832;8.732;2024-03-02T06:59:30;7.57;;;5.70;;
15944;SDS011;30172;48.832;8.732;2024-03-02T07:01:55;7.80;;;6.33;;
15944;SDS011;30172;48.832;8.732;2024-03-02T07:04:21;6.60;;;5.50;;
15944;SDS011;30172;48.832;8.732;2024-03-02T07:06:47;8.17;;;6.23;;
15944;SDS011;30172;48.832;8.732;2024-03-02T07:09:12;7.10;;;5.33;;
15944;SDS011;30172;48.832;8.732;2024-03-02T07:11:37;8.00;;;5.67;;
15944;SDS011;30172;48.832;8.732;2024-03-02T07:14:03;6.23;;;5.30;;
15944;SDS011;30172;48.832;8.732;2024-03-02T07:16:28;6.60;;;5.30;;
15944;SDS011;30172;48.832;8.732;2024-03-02T07:18:55;9.10;;;6.20;;
15944;SDS011;30172;48.832;8.732;2024-03-02T07:21:21;7.93;;;5.97;;
15944;SDS011;30172;48.832;8.732;2024-03-02T07:23:47;7.30;;;5.90;;
15944;SDS011;30172;48.832;8.732;2024-03-02T07:26:13;7.93;;;6.20;;
15944;SDS011;30172;48.832;8.732;2024-03-02T07:28:40;8.13;;;6.30;;
15944;SDS011;30172;48.832;8.732;2024-03-02T07:31:06;8.07;;;6.00;;
15944;SDS011;30172;48.832;8.732;2024-03-02T07:33:32;7.37;;;5.27;;
15944;SDS011;30172;48.832;8.732;2024-03-02T07:35:57;7.87;;;6.60;;
15944;SDS011;30172;48.832;8.732;2024-03-02T07:38:25;8.33;;;5.90;;
15944;SDS011;30172;48.832;8.732;2024-03-02T07:40:51;7.83;;;5.93;;
15944;SDS011;30172;48.832;8.732;2024-03-02T07:43:18;10.10;;;6.43;;
15944;SDS011;30172;48.832;8.732;2024-03-02T07:45:44;9.03;;;6.63;;
15944;SDS011;30172;48.832;8.732;2024-03-02T07:48:10;8.47;;;6.47;;
15944;SDS011;30172;48.832;8.732;2024-03-02T07:50:35;8.47;;;6.03;;
15944;SDS011;30172;48.832;8.732;2024-03-02T07:53:01;7.87;;;6.13;;
15944;SDS011;30172;48.832;8.732;2024-03-02T07:55:26;9.33;;;6.47;;
15944;SDS011;30172;48.832;8.732;2024-03-02T07:57:52;7.93;;;5.90;;
15944;SDS011;30172;48.832;8.732;2024-03-02T08:00:17;7.37;;;5.80;;
15944;SDS011;30172;48.832;8.732;2024-03-02T08:02:43;9.73;;;6.73;;
15944;SDS011;30172;48.832;8.732;2024-03-02T08:05:08;7.63;;;6.23;;
15944;SDS011;30172;48.832;8.732;2024-03-02T08:07:34;7.60;;;5.43;;
15944;SDS011;30172;48.832;8.732;2024-03-02T08:09:59;8.60;;;6.17;;
15944;SDS011;30172;48.832;8.732;2024-03-02T08:12:25;7.20;;;5.07;;
15944;SDS011;30172;48.832;8.732;2024-03-02T08:14:50;5.83;;;4.93;;
15944;SDS011;30172;48.832;8.732;2024-03-02T08:17:16;8.00;;;6.30;;
15944;SDS011;30172;48.832;8.732;2024-03-02T08:19:41;6.17;;;5.07;;
15944;SDS011;30172;48.832;8.732;2024-03-02T08:22:06;7.13;;;5.10;;
15944;SDS011;30172;48.832;8.732;2024-03-02T08:24:32;8.03;;;5.23;;
15944;SDS011;30172;48.832;8.732;2024-03-02T08:26:58;6.87;;;5.07;;
15944;SDS011;30172;48.832;8.732;2024-03-02T08:29:24;5.67;;;4.30;;
15944;SDS011;30172;48.832;8.732;2024-03-02T08:31:50;6.10;;;4.60;;
15944;SDS011;30172;48.832;8.732;2024-03-02T08:34:15;5.87;;;4.63;;
15944;SDS011;30172;48.832;8.732;2024-03-02T08:36:40;4.47;;;3.67;;
15944;SDS011;30172;48.832;8.732;2024-03-02T08:39:07;6.00;;;3.93;;
15944;SDS011;30172;48.832;8.732;2024-03-02T08:41:40;5.10;;;4.13;;
15944;SDS011;30172;48.832;8.732;2024-03-02T08:44:06;4.70;;;3.50;;
15944;SDS011;30172;48.832;8.732;2024-03-02T08:46:31;5.93;;;3.57;;
15944;SDS011;30172;48.832;8.732;2024-03-02T08:48:56;4.30;;;3.37;;
15944;SDS011;30172;48.832;8.732;2024-03-02T08:51:22;6.33;;;3.57;;
15944;SDS011;30172;48.832;8.732;2024-03-02T08:53:47;5.23;;;3.60;;
15944;SDS011;30172;48.832;8.732;2024-03-02T08:56:12;3.87;;;3.30;;
15944;SDS011;30172;48.832;8.732;2024-03-02T08:58:38;4.90;;;3.77;;
15944;SDS011;30172;48.832;8.732;2024-03-02T09:01:03;5.57;;;3.97;;
15944;SDS011;30172;48.832;8.732;2024-03-02T09:03:29;5.00;;;3.73;;
15944;SDS011;30172;48.832;8.732;2024-03-02T09:05:54;8.27;;;4.03;;
15944;SDS011;30172;48.832;8.732;2024-03-02T09:08:20;7.43;;;4.17;;
15944;SDS011;30172;48.832;8.732;2024-03-02T09:10:45;4.87;;;3.47;;
15944;SDS011;30172;48.832;8.732;2024-03-02T09:13:10;4.57;;;4.00;;
15944;SDS011;30172;48.832;8.732;2024-03-02T09:15:36;6.40;;;4.47;;
15944;SDS011;30172;48.832;8.732;2024-03-02T09:18:02;5.43;;;4.53;;
15944;SDS011;30172;48.832;8.732;2024-03-02T09:20:28;4.33;;;3.60;;
15944;SDS011;30172;48.832;8.732;2024-03-02T09:22:54;4.90;;;3.90;;
15944;SDS011;30172;48.832;8.732;2024-03-02T09:25:19;4.20;;;3.73;;
15944;SDS011;30172;48.832;8.732;2024-03-02T09:27:45;5.27;;;3.90;;
15944;SDS011;30172;48.832;8.732;2024-03-02T09:30:10;4.73;;;4.17;;
15944;SDS011;30172;48.832;8.732;2024-03-02T09:32:37;3.87;;;3.53;;
15944;SDS011;30172;48.832;8.732;2024-03-02T09:35:02;5.23;;;4.20;;
15944;SDS011;30172;48.832;8.732;2024-03-02T09:37:28;5.20;;;3.87;;
15944;SDS011;30172;48.832;8.732;2024-03-02T09:39:53;5.87;;;3.77;;
15944;SDS011;30172;48.832;8.732;2024-03-02T09:42:19;5.47;;;3.60;;
15944;SDS011;30172;48.832;8.732;2024-03-02T09:44:44;4.43;;;3.67;;
15944;SDS011;30172;48.832;8.732;2024-03-02T09:47:10;5.33;;;3.80;;
15944;SDS011;30172;48.832;8.732;2024-03-02T09:49:35;4.63;;;4.03;;
15944;SDS011;30172;48.832;8.732;2024-03-02T09:52:01;3.90;;;3.40;;
15944;SDS011;30172;48.832;8.732;2024-03-02T09:54:28;4.77;;;3.50;;
15944;SDS011;30172;48.832;8.732;2024-03-02T09:56:53;3.83;;;3.43;;
15944;SDS011;30172;48.832;8.732;2024-03-02T09:59:19;4.57;;;4.07;;
15944;SDS011;30172;48.832;8.732;2024-03-02T10:02:01;4.87;;;4.20;;
15944;SDS011;30172;48.832;8.732;2024-03-02T10:04:28;4.20;;;3.47;;
15944;SDS011;30172;48.832;8.732;2024-03-02T10:07:13;3.53;;;3.13;;
15944;SDS011;30172;48.832;8.732;2024-03-02T10:09:40;5.27;;;3.37;;
15944;SDS011;30172;48.832;8.732;2024-03-02T10:12:06;3.30;;;3.00;;
15944;SDS011;30172;48.832;8.732;2024-03-02T10:14:33;3.57;;;2.53;;
15944;SDS011;30172;48.832;8.732;2024-03-02T10:17:17;3.27;;;2.53;;
15944;SDS011;30172;48.832;8.732;2024-03-02T10:19:42;3.00;;;2.60;;
15944;SDS011;30172;48.832;8.732;2024-03-02T10:22:08;2.93;;;2.60;;
15944;SDS011;30172;48.832;8.732;2024-03-02T10:24:38;3.30;;;2.67;;
15944;SDS011;30172;48.832;8.732;2024-03-02T10:27:16;3.13;;;2.87;;
15944;SDS011;30172;48.832;8.732;2024-03-02T10:29:45;3.63;;;2.90;;
15944;SDS011;30172;48.832;8.732;2024-03-02T10:32:11;2.50;;;2.30;;
15944;SDS011;30172;48.832;8.732;2024-03-02T10:34:40;3.23;;;2.60;;
15944;SDS011;30172;48.832;8.732;2024-03-02T10:37:05;2.83;;;2.10;;
15944;SDS011;30172;48.832;8.732;2024-03-02T10:39:32;2.40;;;2.20;;
15944;SDS011;30172;48.832;8.732;2024-03-02T10:42:00;1.70;;;1.40;;
15944;SDS011;30172;48.832;8.732;2024-03-02T10:44:28;1.83;;;1.40;;
15944;SDS011;30172;48.832;8.732;2024-03-02T10:46:53;2.10;;;1.50;;
15944;SDS011;30172;48.832;8.732;2024-03-02T10:49:20;2.30;;;1.20;;
15944;SDS011;30172;48.832;8.732;2024-03-02T10:51:47;1.90;;;1.30;;
15944;SDS011;30172;48.832;8.732;2024-03-02T10:54:13;1.57;;;1.37;;
15944;SDS011;30172;48.832;8.732;2024-03-02T10:56:39;1.80;;;1.27;;
15944;SDS011;30172;48.832;8.732;2024-03-02T11:01:56;1.00;;;0.90;;
15944;SDS011;30172;48.832;8.732;2024-03-02T11:04:24;1.20;;;1.10;;
15944;SDS011;30172;48.832;8.732;2024-03-02T11:06:50;1.23;;;0.97;;
15944;SDS011;30172;48.832;8.732;2024-03-02T11:09:19;1.30;;;1.10;;
15944;SDS011;30172;48.832;8.732;2024-03-02T11:11:49;1.00;;;0.90;;
15944;SDS011;30172;48.832;8.732;2024-03-02T11:14:36;1.00;;;0.90;;
15944;SDS011;30172;48.832;8.732;2024-03-02T11:17:03;1.20;;;1.00;;
15944;SDS011;30172;48.832;8.732;2024-03-02T11:19:29;1.47;;;1.10;;
15944;SDS011;30172;48.832;8.732;2024-03-02T11:21:55;2.60;;;1.00;;
15944;SDS011;30172;48.832;8.732;2024-03-02T11:26:46;1.87;;;1.50;;
15944;SDS011;30172;48.832;8.732;2024-03-02T11:29:42;1.50;;;1.10;;
15944;SDS011;30172;48.832;8.732;2024-03-02T11:34:35;1.07;;;1.00;;
15944;SDS011;30172;48.832;8.732;2024-03-02T11:37:01;1.17;;;0.93;;
15944;SDS011;30172;48.832;8.732;2024-03-02T11:39:27;1.30;;;1.20;;
15944;SDS011;30172;48.832;8.732;2024-03-02T11:41:55;1.53;;;1.30;;
15944;SDS011;30172;48.832;8.732;2024-03-02T11:44:21;1.20;;;1.10;;
15944;SDS011;30172;48.832;8.732;2024-03-02T11:46:59;2.50;;;1.80;;
15944;SDS011;30172;48.832;8.732;2024-03-02T11:52:05;1.63;;;1.40;;
15944;SDS011;30172;48.832;8.732;2024-03-02T11:54:34;1.50;;;1.37;;
15944;SDS011;30172;48.832;8.732;2024-03-02T11:57:05;1.53;;;1.43;;
15944;SDS011;30172;48.832;8.732;2024-03-02T11:59:31;2.07;;;1.30;;
15944;SDS011;30172;48.832;8.732;2024-03-02T12:01:57;2.80;;;2.00;;
15944;SDS011;30172;48.832;8.732;2024-03-02T12:04:23;2.63;;;1.57;;
15944;SDS011;30172;48.832;8.732;2024-03-02T12:06:55;2.13;;;1.93;;
15944;SDS011;30172;48.832;8.732;2024-03-02T12:09:21;2.20;;;1.87;;
15944;SDS011;30172;48.832;8.732;2024-03-02T12:11:47;1.90;;;1.40;;
15944;SDS011;30172;48.832;8.732;2024-03-02T12:14:12;2.20;;;1.77;;
15944;SDS011;30172;48.832;8.732;2024-03-02T12:16:38;2.77;;;1.53;;
15944;SDS011;30172;48.832;8.732;2024-03-02T12:19:04;2.47;;;1.80;;
15944;SDS011;30172;48.832;8.732;2024-03-02T12:21:30;1.90;;;1.70;;
15944;SDS011;30172;48.832;8.732;2024-03-02T12:23:55;2.67;;;1.73;;
15944;SDS011;30172;48.832;8.732;2024-03-02T12:26:21;1.77;;;1.60;;
15944;SDS011;30172;48.832;8.732;2024-03-02T12:28:47;2.40;;;1.60;;
15944;SDS011;30172;48.832;8.732;2024-03-02T12:31:13;2.50;;;1.60;;
15944;SDS011;30172;48.832;8.732;2024-03-02T12:33:39;1.97;;;1.60;;
15944;SDS011;30172;48.832;8.732;2024-03-02T12:36:05;3.33;;;1.90;;
15944;SDS011;30172;48.832;8.732;2024-03-02T12:38:34;1.40;;;1.30;;
15944;SDS011;30172;48.832;8.732;2024-03-02T12:40:59;1.90;;;1.67;;
15944;SDS011;30172;48.832;8.732;2024-03-02T12:43:29;3.53;;;1.80;;
15944;SDS011;30172;48.832;8.732;2024-03-02T12:45:55;2.03;;;1.50;;
15944;SDS011;30172;48.832;8.732;2024-03-02T12:48:21;1.70;;;1.50;;
15944;SDS011;30172;48.832;8.732;2024-03-02T12:50:46;2.33;;;1.77;;
15944;SDS011;30172;48.832;8.732;2024-03-02T12:53:15;1.60;;;1.50;;
15944;SDS011;30172;48.832;8.732;2024-03-02T12:55:43;2.13;;;1.77;;
15944;SDS011;30172;48.832;8.732;2024-03-02T12:58:16;1.60;;;1.50;;
15944;SDS011;30172;48.832;8.732;2024-03-02T13:00:44;3.93;;;2.13;;
15944;SDS011;30172;48.832;8.732;2024-03-02T13:03:09;1.73;;;1.37;;
15944;SDS011;30172;48.832;8.732;2024-03-02T13:05:36;1.87;;;1.77;;
15944;SDS011;30172;48.832;8.732;2024-03-02T13:08:02;2.03;;;1.60;;
15944;SDS011;30172;48.832;8.732;2024-03-02T13:10:29;2.10;;;1.80;;
15944;SDS011;30172;48.832;8.732;2024-03-02T13:12:55;2.47;;;1.40;;
15944;SDS011;30172;48.832;8.732;2024-03-02T13:15:21;1.93;;;1.70;;
15944;SDS011;30172;48.832;8.732;2024-03-02T13:17:47;1.40;;;1.30;;
15944;SDS011;30172;48.832;8.732;2024-03-02T13:20:12;3.73;;;1.80;;
15944;SDS011;30172;48.832;8.732;2024-03-02T13:22:39;2.00;;;1.60;;
15944;SDS011;30172;48.832;8.732;2024-03-02T13:25:05;1.63;;;1.47;;
15944;SDS011;30172;48.832;8.732;2024-03-02T13:27:30;3.57;;;2.40;;
15944;SDS011;30172;48.832;8.732;2024-03-02T13:29:59;1.23;;;1.13;;
15944;SDS011;30172;48.832;8.732;2024-03-02T13:32:24;1.63;;;1.30;;
15944;SDS011;30172;48.832;8.732;2024-03-02T13:34:50;1.60;;;1.50;;
15944;SDS011;30172;48.832;8.732;2024-03-02T13:37:16;1.40;;;1.30;;
15944;SDS011;30172;48.832;8.732;2024-03-02T13:39:41;2.07;;;1.60;;
15944;SDS011;30172;48.832;8.732;2024-03-02T13:42:10;2.07;;;1.30;;
15944;SDS011;30172;48.832;8.732;2024-03-02T13:44:38;1.60;;;1.40;;
15944;SDS011;30172;48.832;8.732;2024-03-02T13:47:04;2.60;;;1.30;;
15944;SDS011;30172;48.832;8.732;2024-03-02T13:49:29;1.40;;;1.30;;
15944;SDS011;30172;48.832;8.732;2024-03-02T13:52:01;1.40;;;1.30;;
15944;SDS011;30172;48.832;8.732;2024-03-02T13:54:36;3.00;;;1.57;;
15944;SDS011;30172;48.832;8.732;2024-03-02T13:57:05;2.83;;;1.40;;
15944;SDS011;30172;48.832;8.732;2024-03-02T13:59:32;2.90;;;1.53;;
15944;SDS011;30172;48.832;8.732;2024-03-02T14:01:58;1.50;;;1.40;;
15944;SDS011;30172;48.832;8.732;2024-03-02T14:04:24;3.23;;;1.47;;
15944;SDS011;30172;48.832;8.732;2024-03-02T14:06:49;2.00;;;1.53;;
15944;SDS011;30172;48.832;8.732;2024-03-02T14:09:15;2.30;;;1.30;;
15944;SDS011;30172;48.832;8.732;2024-03-02T14:11:40;1.30;;;1.20;;
15944;SDS011;30172;48.832;8.732;2024-03-02T14:14:05;1.90;;;1.60;;
15944;SDS011;30172;48.832;8.732;2024-03-02T14:16:40;2.03;;;1.63;;
15944;SDS011;30172;48.832;8.732;2024-03-02T14:19:05;1.70;;;1.60;;
15944;SDS011;30172;48.832;8.732;2024-03-02T14:21:31;3.70;;;1.60;;
15944;SDS011;30172;48.832;8.732;2024-03-02T14:23:56;2.03;;;1.77;;
15944;SDS011;30172;48.832;8.732;2024-03-02T14:26:22;2.27;;;1.60;;
15944;SDS011;30172;48.832;8.732;2024-03-02T14:28:47;1.60;;;1.37;;
15944;SDS011;30172;48.832;8.732;2024-03-02T14:31:13;2.20;;;1.70;;
15944;SDS011;30172;48.832;8.732;2024-03-02T14:33:38;1.73;;;1.50;;
15944;SDS011;30172;48.832;8.732;2024-03-02T14:36:03;3.23;;;1.80;;
15944;SDS011;30172;48.832;8.732;2024-03-02T14:38:29;2.40;;;1.47;;
15944;SDS011;30172;48.832;8.732;2024-03-02T14:40:55;1.53;;;1.33;;
15944;SDS011;30172;48.832;8.732;2024-03-02T14:43:21;1.83;;;1.67;;
15944;SDS011;30172;48.832;8.732;2024-03-02T14:45:47;3.43;;;1.40;;
15944;SDS011;30172;48.832;8.732;2024-03-02T14:48:12;2.57;;;1.70;;
15944;SDS011;30172;48.832;8.732;2024-03-02T14:50:38;1.50;;;1.37;;
15944;SDS011;30172;48.832;8.732;2024-03-02T14:53:03;1.83;;;1.50;;
15944;SDS011;30172;48.832;8.732;2024-03-02T14:55:32;2.30;;;1.50;;